Time,TemperatureF,DewpointF,PressureIn,WindDirection,WindDirectionDegrees,WindSpeedMPH,WindSpeedGustMPH,Humidity,HourlyPrecipIn,Conditions,Clouds,dailyrainin,SoftwareType,DateUTC
2013-12-04 00:06:00,38.9,36.5,29.99,SE,139,0.0,0.0,91,0.00,,,0.00,Wunderground v.1.15,2013-12-04 05:06:00,
2013-12-04 00:10:00,39.0,36.6,29.98,SE,139,0.0,0.0,91,0.00,,,0.00,Wunderground v.1.15,2013-12-04 05:10:00,
2013-12-04 00:15:00,39.0,36.3,29.98,SE,139,0.0,0.0,90,0.00,,,0.00,Wunderground v.1.15,2013-12-04 05:15:00,
2013-12-04 00:20:00,39.0,36.3,29.98,SE,139,0.0,0.0,90,0.00,,,0.00,Wunderground v.1.15,2013-12-04 05:20:00,
2013-12-04 00:25:00,39.0,36.3,29.98,SE,139,0.0,0.0,90,0.00,,,0.00,Wunderground v.1.15,2013-12-04 05:25:00,
2013-12-04 00:35:00,39.1,36.4,29.97,SE,139,0.0,0.0,90,0.00,,,0.00,Wunderground v.1.15,2013-12-04 05:35:00,
2013-12-04 00:45:00,39.2,36.8,29.97,SE,139,0.0,0.0,91,0.00,,,0.00,Wunderground v.1.15,2013-12-04 05:45:00,
2013-12-04 00:55:00,39.1,36.7,29.97,SE,139,0.0,0.0,91,0.00,,,0.00,Wunderground v.1.15,2013-12-04 05:55:00,
2013-12-04 01:06:00,39.3,36.9,29.97,SE,139,0.0,0.0,91,0.00,,,0.00,Wunderground v.1.15,2013-12-04 06:06:00,
2013-12-04 01:15:00,39.7,37.3,29.96,SE,139,0.0,0.0,91,0.00,,,0.00,Wunderground v.1.15,2013-12-04 06:15:00,
2013-12-04 01:20:00,39.7,37.3,29.97,SE,139,0.0,0.0,91,0.00,,,0.00,Wunderground v.1.15,2013-12-04 06:20:00,
2013-12-04 01:25:00,39.7,37.0,29.97,SE,139,0.0,0.0,90,0.00,,,0.00,Wunderground v.1.15,2013-12-04 06:25:00,
2013-12-04 01:35:00,39.7,37.0,29.97,SE,139,0.0,0.0,90,0.00,,,0.00,Wunderground v.1.15,2013-12-04 06:35:00,
2013-12-04 01:45:00,39.8,37.4,29.98,SE,139,0.0,0.0,91,0.00,,,0.00,Wunderground v.1.15,2013-12-04 06:45:00,
2013-12-04 01:50:00,39.9,37.5,29.98,SE,139,0.0,0.0,91,0.00,,,0.00,Wunderground v.1.15,2013-12-04 06:50:00,
2013-12-04 02:00:00,40.3,37.9,29.98,SE,139,0.0,0.0,91,0.00,,,0.00,Wunderground v.1.15,2013-12-04 07:00:00,
2013-12-04 02:05:00,40.6,38.2,29.99,SE,139,0.0,0.0,91,0.00,,,0.00,Wunderground v.1.15,2013-12-04 07:05:00,
2013-12-04 02:15:00,40.9,38.2,29.99,SE,139,0.0,0.0,90,0.00,,,0.00,Wunderground v.1.15,2013-12-04 07:15:00,
2013-12-04 02:20:00,40.9,38.2,29.99,SE,139,0.0,0.0,90,0.00,,,0.00,Wunderground v.1.15,2013-12-04 07:20:00,
2013-12-04 02:30:00,41.1,38.4,29.99,SE,139,0.0,0.0,90,0.00,,,0.00,Wunderground v.1.15,2013-12-04 07:30:00,
2013-12-04 02:40:00,41.2,38.5,29.99,SE,139,0.0,0.0,90,0.00,,,0.00,Wunderground v.1.15,2013-12-04 07:40:00,
2013-12-04 02:50:00,41.3,38.6,29.99,SE,139,0.0,0.0,90,0.00,,,0.00,Wunderground v.1.15,2013-12-04 07:50:00,
2013-12-04 03:00:00,41.5,38.8,29.99,SE,139,0.0,0.0,90,0.00,,,0.00,Wunderground v.1.15,2013-12-04 08:00:00,
2013-12-04 03:06:00,41.6,38.9,29.99,SE,139,0.0,0.0,90,0.00,,,0.00,Wunderground v.1.15,2013-12-04 08:06:00,
2013-12-04 03:15:00,41.6,38.6,29.99,SE,139,0.0,0.0,89,0.00,,,0.00,Wunderground v.1.15,2013-12-04 08:15:00,
2013-12-04 03:20:00,41.6,38.6,29.99,SE,139,0.0,0.0,89,0.00,,,0.00,Wunderground v.1.15,2013-12-04 08:20:00,
2013-12-04 03:30:00,41.5,38.5,29.99,SE,139,0.0,0.0,89,0.00,,,0.00,Wunderground v.1.15,2013-12-04 08:30:00,
2013-12-04 03:40:00,41.7,39.0,29.99,SE,139,0.0,0.0,90,0.00,,,0.00,Wunderground v.1.15,2013-12-04 08:40:00,
2013-12-04 03:45:00,41.7,39.0,29.99,SE,139,0.0,0.0,90,0.00,,,0.00,Wunderground v.1.15,2013-12-04 08:45:00,
2013-12-04 03:55:00,41.8,39.1,29.98,SE,139,0.0,0.0,90,0.00,,,0.00,Wunderground v.1.15,2013-12-04 08:55:00,
2013-12-04 04:00:00,41.9,39.2,29.98,SE,139,0.0,0.0,90,0.00,,,0.00,Wunderground v.1.15,2013-12-04 09:00:00,
2013-12-04 04:06:00,42.0,39.3,29.98,SE,139,0.0,0.0,90,0.00,,,0.00,Wunderground v.1.15,2013-12-04 09:06:00,
2013-12-04 04:15:00,42.1,39.4,29.98,SE,139,0.0,0.0,90,0.00,,,0.00,Wunderground v.1.15,2013-12-04 09:15:00,
2013-12-04 04:25:00,42.1,39.4,29.98,SE,139,0.0,0.0,90,0.00,,,0.00,Wunderground v.1.15,2013-12-04 09:25:00,
2013-12-04 04:30:00,42.0,39.0,29.98,SE,139,0.0,0.0,89,0.00,,,0.00,Wunderground v.1.15,2013-12-04 09:30:00,
2013-12-04 04:40:00,41.8,38.8,29.97,SE,139,0.0,0.0,89,0.00,,,0.00,Wunderground v.1.15,2013-12-04 09:40:00,
2013-12-04 04:50:00,41.6,38.6,29.97,SE,139,0.0,0.0,89,0.00,,,0.00,Wunderground v.1.15,2013-12-04 09:50:00,
2013-12-04 05:00:00,41.5,38.8,29.97,SE,139,0.0,0.0,90,0.00,,,0.00,Wunderground v.1.15,2013-12-04 10:00:00,
2013-12-04 05:06:00,41.6,38.9,29.96,SE,138,0.0,0.0,90,0.00,,,0.00,Wunderground v.1.15,2013-12-04 10:06:00,
2013-12-04 05:15:00,41.9,39.2,29.96,SE,139,0.0,0.0,90,0.00,,,0.00,Wunderground v.1.15,2013-12-04 10:15:00,
2013-12-04 05:25:00,42.0,39.3,29.97,SE,139,0.0,0.0,90,0.00,,,0.00,Wunderground v.1.15,2013-12-04 10:25:00,
2013-12-04 05:30:00,42.1,39.4,29.97,SE,139,0.0,0.0,90,0.00,,,0.00,Wunderground v.1.15,2013-12-04 10:30:00,
2013-12-04 05:40:00,42.2,39.5,29.97,SE,139,0.0,0.0,90,0.00,,,0.00,Wunderground v.1.15,2013-12-04 10:40:00,
2013-12-04 05:50:00,41.7,38.7,29.98,SE,139,0.0,0.0,89,0.00,,,0.00,Wunderground v.1.15,2013-12-04 10:50:00,
2013-12-04 05:55:00,41.4,38.4,29.97,SE,139,0.0,0.0,89,0.00,,,0.00,Wunderground v.1.15,2013-12-04 10:55:00,
2013-12-04 06:06:00,41.1,38.4,29.98,SE,139,0.0,0.0,90,0.00,,,0.00,Wunderground v.1.15,2013-12-04 11:06:00,
2013-12-04 06:15:00,40.9,38.2,29.98,SE,139,0.0,0.0,90,0.00,,,0.00,Wunderground v.1.15,2013-12-04 11:15:00,
2013-12-04 06:20:00,41.0,38.3,29.98,SE,139,0.0,0.0,90,0.00,,,0.00,Wunderground v.1.15,2013-12-04 11:20:00,
2013-12-04 06:30:00,41.0,38.3,29.99,SE,139,0.0,0.0,90,0.00,,,0.00,Wunderground v.1.15,2013-12-04 11:30:00,
2013-12-04 06:40:00,41.2,38.5,29.99,SE,139,0.0,0.0,90,0.00,,,0.00,Wunderground v.1.15,2013-12-04 11:40:00,
2013-12-04 06:45:00,41.3,38.9,30.00,SE,139,0.0,0.0,91,0.00,,,0.00,Wunderground v.1.15,2013-12-04 11:45:00,
2013-12-04 06:55:00,41.2,38.5,30.00,SE,140,0.0,0.0,90,0.00,,,0.00,Wunderground v.1.15,2013-12-04 11:55:00,
2013-12-04 07:00:00,41.1,38.4,30.00,SE,139,0.0,0.0,90,0.00,,,0.00,Wunderground v.1.15,2013-12-04 12:00:00,
2013-12-04 07:05:00,41.1,38.4,30.00,SE,139,0.0,0.0,90,0.00,,,0.00,Wunderground v.1.15,2013-12-04 12:05:00,
2013-12-04 07:15:00,41.1,38.4,30.01,SE,139,0.0,0.0,90,0.00,,,0.00,Wunderground v.1.15,2013-12-04 12:15:00,
2013-12-04 07:20:00,41.1,38.7,30.01,SE,140,0.0,0.0,91,0.00,,,0.00,Wunderground v.1.15,2013-12-04 12:20:00,
2013-12-04 07:25:00,41.1,38.7,30.01,SE,139,0.0,0.0,91,0.00,,,0.00,Wunderground v.1.15,2013-12-04 12:25:00,
2013-12-04 07:35:00,41.2,38.8,30.01,SE,139,0.0,0.0,91,0.00,,,0.00,Wunderground v.1.15,2013-12-04 12:35:00,
2013-12-04 07:45:00,41.3,38.9,30.02,SE,139,0.0,0.0,91,0.00,,,0.00,Wunderground v.1.15,2013-12-04 12:45:00,
2013-12-04 07:55:00,41.2,38.5,30.02,SE,139,0.0,0.0,90,0.00,,,0.00,Wunderground v.1.15,2013-12-04 12:55:00,
2013-12-04 08:00:00,41.1,38.4,30.03,SE,139,0.0,0.0,90,0.00,,,0.00,Wunderground v.1.15,2013-12-04 13:00:00,
2013-12-04 08:05:00,41.1,38.4,30.02,SE,139,0.0,0.0,90,0.00,,,0.00,Wunderground v.1.15,2013-12-04 13:05:00,
2013-12-04 08:15:00,41.1,38.7,30.03,SE,139,0.0,0.0,91,0.00,,,0.00,Wunderground v.1.15,2013-12-04 13:15:00,
2013-12-04 08:20:00,41.1,38.7,30.03,SE,139,0.0,0.0,91,0.00,,,0.00,Wunderground v.1.15,2013-12-04 13:20:00,
2013-12-04 08:30:00,41.4,39.0,30.04,SE,139,0.0,0.0,91,0.00,,,0.00,Wunderground v.1.15,2013-12-04 13:30:00,
2013-12-04 08:40:00,41.6,39.2,30.04,SE,139,0.0,0.0,91,0.00,,,0.00,Wunderground v.1.15,2013-12-04 13:40:00,
2013-12-04 08:45:00,41.7,39.3,30.04,SE,139,0.0,0.0,91,0.00,,,0.00,Wunderground v.1.15,2013-12-04 13:45:00,
2013-12-04 08:55:00,42.2,39.8,30.04,SE,138,0.0,0.0,91,0.00,,,0.00,Wunderground v.1.15,2013-12-04 13:55:00,
2013-12-04 09:06:00,42.8,40.4,30.03,SE,139,0.0,0.0,91,0.00,,,0.00,Wunderground v.1.15,2013-12-04 14:06:00,
2013-12-04 09:15:00,43.3,40.6,30.03,SE,138,0.0,0.0,90,0.00,,,0.00,Wunderground v.1.15,2013-12-04 14:15:00,
2013-12-04 09:20:00,43.6,40.9,30.04,SE,138,0.0,0.0,90,0.00,,,0.00,Wunderground v.1.15,2013-12-04 14:20:00,
2013-12-04 09:30:00,44.1,41.4,30.04,SE,139,0.0,0.0,90,0.00,,,0.00,Wunderground v.1.15,2013-12-04 14:30:00,
2013-12-04 09:40:00,44.7,41.7,30.04,SE,139,0.0,0.0,89,0.00,,,0.00,Wunderground v.1.15,2013-12-04 14:40:00,
2013-12-04 09:50:00,45.7,42.3,30.04,SE,139,0.0,0.0,88,0.00,,,0.00,Wunderground v.1.15,2013-12-04 14:50:00,
2013-12-04 09:55:00,46.3,42.6,30.03,SE,138,0.0,0.0,87,0.00,,,0.00,Wunderground v.1.15,2013-12-04 14:55:00,
2013-12-04 10:06:00,47.5,43.8,30.04,SE,139,0.0,0.0,87,0.00,,,0.00,Wunderground v.1.15,2013-12-04 15:06:00,
2013-12-04 10:15:00,48.7,44.7,30.04,SE,138,0.0,0.0,86,0.00,,,0.00,Wunderground v.1.15,2013-12-04 15:15:00,
2013-12-04 10:20:00,49.2,44.9,30.04,SE,138,0.0,0.0,85,0.00,,,0.00,Wunderground v.1.15,2013-12-04 15:20:00,
2013-12-04 10:25:00,49.7,45.1,30.04,SE,139,0.0,0.0,84,0.00,,,0.00,Wunderground v.1.15,2013-12-04 15:25:00,
2013-12-04 10:35:00,50.4,45.7,30.05,SE,139,0.0,0.0,84,0.00,,,0.00,Wunderground v.1.15,2013-12-04 15:35:00,
2013-12-04 10:45:00,51.1,46.1,30.04,SE,139,0.0,0.0,83,0.00,,,0.00,Wunderground v.1.15,2013-12-04 15:45:00,
2013-12-04 10:55:00,51.8,46.8,30.04,SE,139,0.0,0.0,83,0.00,,,0.00,Wunderground v.1.15,2013-12-04 15:55:00,
2013-12-04 11:05:00,52.7,47.7,30.04,SE,142,0.0,0.0,83,0.00,,,0.00,Wunderground v.1.15,2013-12-04 16:05:00,
2013-12-04 11:15:00,53.8,48.8,30.03,SW,231,0.0,0.0,83,0.00,,,0.00,Wunderground v.1.15,2013-12-04 16:15:00,
2013-12-04 11:25:00,54.5,49.1,30.03,SSE,166,0.0,0.0,82,0.00,,,0.00,Wunderground v.1.15,2013-12-04 16:25:00,
2013-12-04 11:35:00,55.1,49.0,30.02,SE,145,0.0,0.0,80,0.00,,,0.00,Wunderground v.1.15,2013-12-04 16:35:00,
2013-12-04 11:45:00,55.5,49.1,30.02,SE,145,0.0,0.0,79,0.00,,,0.00,Wunderground v.1.15,2013-12-04 16:45:00,
2013-12-04 11:50:00,55.7,49.3,30.02,SE,145,0.0,0.0,79,0.00,,,0.00,Wunderground v.1.15,2013-12-04 16:50:00,
2013-12-04 12:00:00,56.3,49.9,30.01,SE,144,0.0,0.0,79,0.00,,,0.00,Wunderground v.1.15,2013-12-04 17:00:00,
2013-12-04 12:05:00,56.6,50.2,30.01,SE,138,1.0,1.0,79,0.00,,,0.00,Wunderground v.1.15,2013-12-04 17:05:00,
2013-12-04 12:15:00,56.7,50.3,30.01,SE,138,0.0,1.0,79,0.00,,,0.00,Wunderground v.1.15,2013-12-04 17:15:00,
2013-12-04 12:20:00,56.9,50.5,30.00,SE,134,0.0,0.0,79,0.00,,,0.00,Wunderground v.1.15,2013-12-04 17:20:00,
2013-12-04 12:30:00,57.2,50.7,30.00,SE,135,0.0,0.0,79,0.00,,,0.00,Wunderground v.1.15,2013-12-04 17:30:00,
2013-12-04 12:40:00,57.5,50.7,30.00,SE,143,0.0,2.0,78,0.00,,,0.00,Wunderground v.1.15,2013-12-04 17:40:00,
2013-12-04 12:50:00,57.9,51.1,29.99,SE,141,1.0,4.0,78,0.00,,,0.00,Wunderground v.1.15,2013-12-04 17:50:00,
2013-12-04 12:55:00,58.1,50.9,29.99,SE,130,1.0,4.0,77,0.00,,,0.00,Wunderground v.1.15,2013-12-04 17:55:00,
2013-12-04 13:06:00,58.2,50.7,29.99,SE,131,0.0,0.0,76,0.00,,,0.00,Wunderground v.1.15,2013-12-04 18:06:00,
2013-12-04 13:15:00,58.3,50.8,29.98,SE,130,0.0,1.0,76,0.00,,,0.00,Wunderground v.1.15,2013-12-04 18:15:00,
2013-12-04 13:20:00,58.6,51.1,29.98,SE,127,0.0,0.0,76,0.00,,,0.00,Wunderground v.1.15,2013-12-04 18:20:00,
2013-12-04 13:30:00,58.7,51.2,29.98,SSE,160,1.0,1.0,76,0.00,,,0.00,Wunderground v.1.15,2013-12-04 18:30:00,
2013-12-04 13:35:00,58.6,51.1,29.98,SE,143,0.0,1.0,76,0.00,,,0.00,Wunderground v.1.15,2013-12-04 18:35:00,
2013-12-04 13:45:00,58.8,51.2,29.98,SSE,153,0.0,2.0,76,0.00,,,0.00,Wunderground v.1.15,2013-12-04 18:45:00,
2013-12-04 13:55:00,59.0,51.1,29.98,SE,133,1.0,1.0,75,0.00,,,0.00,Wunderground v.1.15,2013-12-04 18:55:00,
2013-12-04 14:06:00,59.0,51.1,29.97,ENE,72,1.0,2.0,75,0.00,,,0.00,Wunderground v.1.15,2013-12-04 19:06:00,
2013-12-04 14:15:00,59.6,51.7,29.97,ENE,72,0.0,0.0,75,0.00,,,0.00,Wunderground v.1.15,2013-12-04 19:15:00,
2013-12-04 14:20:00,59.9,51.6,29.97,ENE,71,0.0,0.0,74,0.00,,,0.00,Wunderground v.1.15,2013-12-04 19:20:00,
2013-12-04 14:25:00,60.0,51.7,29.97,ENE,72,0.0,0.0,74,0.00,,,0.00,Wunderground v.1.15,2013-12-04 19:25:00,
2013-12-04 14:35:00,60.0,51.7,29.97,ENE,72,0.0,0.0,74,0.00,,,0.00,Wunderground v.1.15,2013-12-04 19:35:00,
2013-12-04 14:45:00,59.9,51.6,29.97,SSE,155,0.0,0.0,74,0.00,,,0.00,Wunderground v.1.15,2013-12-04 19:45:00,
2013-12-04 14:55:00,60.1,52.1,29.96,ESE,115,0.0,1.0,75,0.00,,,0.00,Wunderground v.1.15,2013-12-04 19:55:00,
2013-12-04 15:00:00,60.2,52.2,29.97,SSE,149,0.0,0.0,75,0.00,,,0.00,Wunderground v.1.15,2013-12-04 20:00:00,
2013-12-04 15:05:00,60.2,52.2,29.96,SE,131,0.0,0.0,75,0.00,,,0.00,Wunderground v.1.15,2013-12-04 20:05:00,
2013-12-04 15:15:00,60.0,51.7,29.97,WSW,237,0.0,0.0,74,0.00,,,0.00,Wunderground v.1.15,2013-12-04 20:15:00,
2013-12-04 15:20:00,59.9,51.6,29.97,South,183,0.0,0.0,74,0.00,,,0.00,Wunderground v.1.15,2013-12-04 20:20:00,
2013-12-04 15:30:00,59.4,51.5,29.97,SSE,149,0.0,0.0,75,0.00,,,0.00,Wunderground v.1.15,2013-12-04 20:30:00,
2013-12-04 15:40:00,59.0,51.4,29.97,SE,141,0.0,0.0,76,0.00,,,0.00,Wunderground v.1.15,2013-12-04 20:40:00,
2013-12-04 15:50:00,58.8,51.6,29.97,SE,142,0.0,0.0,77,0.00,,,0.00,Wunderground v.1.15,2013-12-04 20:50:00,
2013-12-04 15:55:00,58.6,51.4,29.97,SE,142,0.0,0.0,77,0.00,,,0.00,Wunderground v.1.15,2013-12-04 20:55:00,
2013-12-04 16:06:00,58.1,50.9,29.98,SE,143,1.0,2.0,77,0.00,,,0.00,Wunderground v.1.15,2013-12-04 21:06:00,
2013-12-04 16:15:00,57.7,50.9,29.98,SSE,152,0.0,1.0,78,0.00,,,0.00,Wunderground v.1.15,2013-12-04 21:15:00,
2013-12-04 16:20:00,57.4,50.9,29.98,SSE,152,0.0,0.0,79,0.00,,,0.00,Wunderground v.1.15,2013-12-04 21:20:00,
2013-12-04 16:30:00,56.9,50.5,29.99,SSE,152,0.0,0.0,79,0.00,,,0.00,Wunderground v.1.15,2013-12-04 21:30:00,
2013-12-04 16:35:00,56.6,50.5,29.99,SSE,152,0.0,0.0,80,0.00,,,0.00,Wunderground v.1.15,2013-12-04 21:35:00,
2013-12-04 16:45:00,56.1,50.3,29.99,SSE,152,0.0,0.0,81,0.00,,,0.00,Wunderground v.1.15,2013-12-04 21:45:00,
2013-12-04 16:55:00,55.6,50.2,29.99,SSE,152,0.0,0.0,82,0.00,,,0.00,Wunderground v.1.15,2013-12-04 21:55:00,
2013-12-04 17:06:00,55.3,50.2,29.99,SSE,152,0.0,0.0,83,0.00,,,0.00,Wunderground v.1.15,2013-12-04 22:06:00,
2013-12-04 17:15:00,54.8,50.1,29.99,SSE,152,0.0,0.0,84,0.00,,,0.00,Wunderground v.1.15,2013-12-04 22:15:00,
2013-12-04 17:25:00,54.5,49.8,30.00,SSE,151,0.0,0.0,84,0.00,,,0.00,Wunderground v.1.15,2013-12-04 22:25:00,
2013-12-04 17:35:00,54.2,49.8,30.00,SSE,152,0.0,0.0,85,0.00,,,0.00,Wunderground v.1.15,2013-12-04 22:35:00,
2013-12-04 17:45:00,53.8,49.4,30.00,SSE,152,0.0,0.0,85,0.00,,,0.00,Wunderground v.1.15,2013-12-04 22:45:00,
2013-12-04 17:55:00,53.4,49.3,30.00,SSE,152,0.0,0.0,86,0.00,,,0.00,Wunderground v.1.15,2013-12-04 22:55:00,
2013-12-04 18:00:00,53.1,49.3,30.01,SSE,152,0.0,0.0,87,0.00,,,0.00,Wunderground v.1.15,2013-12-04 23:00:00,
2013-12-04 18:05:00,52.9,49.1,30.01,SSE,152,0.0,0.0,87,0.00,,,0.00,Wunderground v.1.15,2013-12-04 23:05:00,
2013-12-04 18:15:00,52.7,49.2,30.01,SSE,152,0.0,0.0,88,0.00,,,0.00,Wunderground v.1.15,2013-12-04 23:15:00,
2013-12-04 18:20:00,52.7,49.5,30.01,SSE,152,0.0,0.0,89,0.00,,,0.00,Wunderground v.1.15,2013-12-04 23:20:00,
2013-12-04 18:30:00,52.6,49.4,30.02,SSE,152,0.0,0.0,89,0.00,,,0.00,Wunderground v.1.15,2013-12-04 23:30:00,
2013-12-04 18:40:00,52.2,49.1,30.01,SSE,152,0.0,0.0,89,0.00,,,0.00,Wunderground v.1.15,2013-12-04 23:40:00,
2013-12-04 18:45:00,52.0,48.9,30.01,SSE,152,0.0,0.0,89,0.00,,,0.00,Wunderground v.1.15,2013-12-04 23:45:00,
2013-12-04 18:55:00,51.7,48.6,30.01,SSE,152,0.0,0.0,89,0.00,,,0.00,Wunderground v.1.15,2013-12-04 23:55:00,
2013-12-04 19:06:00,51.3,48.2,30.02,SSE,152,0.0,0.0,89,0.00,,,0.00,Wunderground v.1.15,2013-12-05 00:06:00,
2013-12-04 19:15:00,50.9,48.1,30.02,SSE,152,0.0,0.0,90,0.00,,,0.00,Wunderground v.1.15,2013-12-05 00:15:00,
2013-12-04 19:25:00,50.9,48.1,30.02,SSE,152,0.0,0.0,90,0.00,,,0.00,Wunderground v.1.15,2013-12-05 00:25:00,
2013-12-04 19:35:00,50.9,48.1,30.02,SSE,152,0.0,0.0,90,0.00,,,0.00,Wunderground v.1.15,2013-12-05 00:35:00,
2013-12-04 19:40:00,50.9,48.4,30.02,SSE,152,0.0,0.0,91,0.00,,,0.00,Wunderground v.1.15,2013-12-05 00:40:00,
2013-12-04 19:50:00,51.2,48.7,30.02,SSE,152,0.0,0.0,91,0.00,,,0.00,Wunderground v.1.15,2013-12-05 00:50:00,
2013-12-04 20:00:00,51.4,48.9,30.02,SSE,152,0.0,0.0,91,0.00,,,0.00,Wunderground v.1.15,2013-12-05 01:00:00,
2013-12-04 20:06:00,51.6,49.1,30.01,SSE,152,0.0,0.0,91,0.00,,,0.00,Wunderground v.1.15,2013-12-05 01:06:00,
2013-12-04 20:15:00,52.0,49.5,30.02,SSE,152,0.0,0.0,91,0.00,,,0.00,Wunderground v.1.15,2013-12-05 01:15:00,
2013-12-04 20:20:00,51.9,48.8,30.02,SSE,152,0.0,0.0,89,0.00,,,0.00,Wunderground v.1.15,2013-12-05 01:20:00,
2013-12-04 20:30:00,51.7,48.6,30.03,SSE,152,0.0,0.0,89,0.00,,,0.00,Wunderground v.1.15,2013-12-05 01:30:00,
2013-12-04 20:40:00,51.1,47.7,30.02,SSE,152,0.0,0.0,88,0.00,,,0.00,Wunderground v.1.15,2013-12-05 01:40:00,
2013-12-04 20:45:00,50.8,47.7,30.03,SSE,152,0.0,0.0,89,0.00,,,0.00,Wunderground v.1.15,2013-12-05 01:45:00,
2013-12-04 20:55:00,50.8,48.3,30.03,SSE,152,0.0,0.0,91,0.00,,,0.00,Wunderground v.1.15,2013-12-05 01:55:00,
2013-12-04 21:05:00,51.0,48.2,30.04,SSE,152,0.0,0.0,90,0.00,,,0.00,Wunderground v.1.15,2013-12-05 02:05:00,
2013-12-04 21:15:00,51.1,48.6,30.03,SSE,152,0.0,0.0,91,0.00,,,0.00,Wunderground v.1.15,2013-12-05 02:15:00,
2013-12-04 21:25:00,51.3,48.8,30.03,SSE,152,0.0,0.0,91,0.00,,,0.00,Wunderground v.1.15,2013-12-05 02:25:00,
2013-12-04 21:30:00,51.4,48.6,30.02,SSE,152,0.0,0.0,90,0.00,,,0.00,Wunderground v.1.15,2013-12-05 02:30:00,
2013-12-04 21:40:00,51.4,48.6,30.02,SSE,152,0.0,0.0,90,0.00,,,0.00,Wunderground v.1.15,2013-12-05 02:40:00,
2013-12-04 21:50:00,51.6,49.1,30.02,SSE,152,0.0,0.0,91,0.00,,,0.00,Wunderground v.1.15,2013-12-05 02:50:00,
2013-12-04 22:00:00,51.8,49.3,30.02,SSE,152,0.0,0.0,91,0.00,,,0.00,Wunderground v.1.15,2013-12-05 03:00:00,
2013-12-04 22:06:00,51.9,49.4,30.02,SSE,152,0.0,0.0,91,0.00,,,0.00,Wunderground v.1.15,2013-12-05 03:06:00,
2013-12-04 22:15:00,52.1,49.6,30.02,SSE,152,0.0,0.0,91,0.00,,,0.00,Wunderground v.1.15,2013-12-05 03:15:00,
2013-12-04 22:20:00,52.2,49.7,30.03,SSE,152,0.0,0.0,91,0.00,,,0.00,Wunderground v.1.15,2013-12-05 03:20:00,
2013-12-04 22:25:00,52.2,49.4,30.02,SSE,152,0.0,0.0,90,0.00,,,0.00,Wunderground v.1.15,2013-12-05 03:25:00,
2013-12-04 22:35:00,52.1,49.3,30.03,SSE,152,0.0,0.0,90,0.00,,,0.00,Wunderground v.1.15,2013-12-05 03:35:00,
2013-12-04 22:40:00,52.1,49.3,30.02,SSE,152,0.0,0.0,90,0.00,,,0.00,Wunderground v.1.15,2013-12-05 03:40:00,
2013-12-04 22:50:00,52.0,49.2,30.03,SSE,152,0.0,0.0,90,0.00,,,0.00,Wunderground v.1.15,2013-12-05 03:50:00,
2013-12-04 23:00:00,51.9,49.1,30.03,SSE,152,0.0,0.0,90,0.00,,,0.00,Wunderground v.1.15,2013-12-05 04:00:00,
2013-12-04 23:06:00,51.8,49.0,30.03,SSE,152,0.0,0.0,90,0.00,,,0.00,Wunderground v.1.15,2013-12-05 04:06:00,
2013-12-04 23:15:00,51.9,49.4,30.03,SSE,152,0.0,0.0,91,0.00,,,0.00,Wunderground v.1.15,2013-12-05 04:15:00,
2013-12-04 23:20:00,51.9,49.1,30.03,SSE,152,0.0,0.0,90,0.00,,,0.00,Wunderground v.1.15,2013-12-05 04:20:00,
2013-12-04 23:25:00,51.9,49.1,30.03,SSE,152,0.0,0.0,90,0.00,,,0.00,Wunderground v.1.15,2013-12-05 04:25:00,
2013-12-04 23:35:00,51.9,49.1,30.04,SSE,152,0.0,0.0,90,0.00,,,0.00,Wunderground v.1.15,2013-12-05 04:35:00,
2013-12-04 23:45:00,51.9,49.4,30.03,SSE,152,0.0,0.0,91,0.00,,,0.00,Wunderground v.1.15,2013-12-05 04:45:00,
2013-12-04 23:55:00,51.9,49.4,30.03,SSE,152,0.0,0.0,91,0.00,,,0.00,Wunderground v.1.15,2013-12-05 04:55:00,